Time;durP1;ratioP1;P1;durP2;ratioP2;P2;SDS_P1;SDS_P2;PMS_P1;PMS_P2;Temp;Humidity;BMP_temperature;BMP_pressure;BME280_temperature;BME280_humidity;BME280_pressure;Samples;Min_cycle;Max_cycle;Signal;HPM_P1;HPM_P2
2021/04/08 00:02:18;;;;;;;11.32;1.38;;;2.70;99.90;;;;;;4926597;28;20113;-87
2021/04/08 00:04:41;;;;;;;17.40;1.25;;;2.70;99.90;;;;;;4909071;28;20114;-87
2021/04/08 00:07:04;;;;;;;12.13;2.35;;;2.70;99.90;;;;;;4924787;28;20101;-88
2021/04/08 00:09:26;;;;;;;10.23;0.95;;;2.60;99.90;;;;;;4923372;28;20539;-87
2021/04/08 00:11:49;;;;;;;11.80;1.52;;;2.60;99.90;;;;;;4924314;28;20148;-83
2021/04/08 00:14:12;;;;;;;10.48;1.00;;;2.60;99.90;;;;;;4925462;28;20090;-85
2021/04/08 00:16:36;;;;;;;15.18;1.40;;;2.50;99.90;;;;;;4924213;28;20090;-86
2021/04/08 00:18:58;;;;;;;17.85;1.83;;;2.50;99.90;;;;;;4924853;28;20079;-85
2021/04/08 00:21:21;;;;;;;9.07;1.50;;;2.40;99.90;;;;;;4923819;28;20094;-85
2021/04/08 00:23:43;;;;;;;13.70;1.60;;;2.40;99.90;;;;;;4926886;28;20086;-85
2021/04/08 00:26:06;;;;;;;6.53;1.00;;;2.40;99.90;;;;;;4924631;28;20151;-85
2021/04/08 00:28:28;;;;;;;11.35;1.40;;;2.40;99.90;;;;;;4924720;28;20097;-87
2021/04/08 00:30:51;;;;;;;10.32;1.05;;;2.50;99.90;;;;;;4925387;28;20513;-86
2021/04/08 00:33:18;;;;;;;11.32;1.27;;;2.50;99.90;;;;;;4922413;28;20093;-84
2021/04/08 00:35:41;;;;;;;13.18;1.10;;;2.40;99.90;;;;;;4924249;28;20086;-86
2021/04/08 00:38:04;;;;;;;14.52;1.52;;;2.40;99.90;;;;;;4925119;28;20143;-86
2021/04/08 00:40:27;;;;;;;12.60;1.58;;;;;;;;;;4925760;28;20094;-86
2021/04/08 00:42:50;;;;;;;12.13;1.00;;;2.30;99.90;;;;;;4922921;28;20092;-84
2021/04/08 00:45:13;;;;;;;19.75;2.25;;;2.30;99.90;;;;;;4925706;28;20091;-84
2021/04/08 00:47:35;;;;;;;16.42;2.40;;;2.30;99.90;;;;;;4920645;28;20572;-87
2021/04/08 00:49:59;;;;;;;11.20;1.27;;;2.30;99.90;;;;;;4926325;28;20159;-86
2021/04/08 00:52:22;;;;;;;9.90;1.25;;;2.20;99.90;;;;;;4926351;28;20091;-85
2021/04/08 00:54:47;;;;;;;14.43;1.98;;;2.30;99.90;;;;;;4925564;28;20086;-87
2021/04/08 00:57:10;;;;;;;7.32;1.17;;;2.30;99.90;;;;;;4928015;28;20175;-85
2021/04/08 00:59:33;;;;;;;18.08;1.98;;;2.30;99.90;;;;;;4928234;28;20086;-87
2021/04/08 01:01:55;;;;;;;11.77;1.35;;;;;;;;;;4929832;28;20095;-87
2021/04/08 01:04:20;;;;;;;13.45;1.63;;;2.30;99.90;;;;;;4927918;28;20129;-85
2021/04/08 01:06:44;;;;;;;18.83;2.50;;;2.30;99.90;;;;;;4928450;28;20105;-86
2021/04/08 01:09:09;;;;;;;9.13;1.52;;;;;;;;;;4928210;28;20093;-87
2021/04/08 01:11:32;;;;;;;22.60;2.13;;;2.20;99.90;;;;;;4927321;28;20083;-85
2021/04/08 01:13:55;;;;;;;15.38;2.47;;;2.20;99.90;;;;;;4928927;28;20088;-86
2021/04/08 01:16:22;;;;;;;13.85;1.30;;;;;;;;;;4930041;28;20082;-85
2021/04/08 01:18:56;;;;;;;15.60;1.60;;;2.00;99.90;;;;;;4926689;28;20094;-88
2021/04/08 01:21:26;;;;;;;15.13;1.80;;;2.00;99.90;;;;;;4929096;28;20089;-86
2021/04/08 01:24:27;;;;;;;17.98;2.00;;;1.90;99.90;;;;;;4929081;28;20108;-87
2021/04/08 01:27:27;;;;;;;5.30;1.05;;;1.90;99.90;;;;;;4914795;28;20087;-84
2021/04/08 01:30:16;;;;;;;11.93;1.58;;;1.90;99.90;;;;;;4926164;28;20156;-86
2021/04/08 01:32:44;;;;;;;6.63;1.67;;;1.90;99.90;;;;;;4869333;28;20265;-85
2021/04/08 01:35:10;;;;;;;9.68;1.70;;;1.90;99.90;;;;;;4924038;28;20097;-86
2021/04/08 01:37:39;;;;;;;25.35;2.53;;;1.80;99.90;;;;;;4923167;28;20128;-86
2021/04/08 01:40:07;;;;;;;10.23;1.30;;;1.80;99.90;;;;;;4927215;28;20083;-85
2021/04/08 01:42:31;;;;;;;19.45;1.70;;;1.80;99.90;;;;;;4927104;28;20086;-87
2021/04/08 01:44:56;;;;;;;18.13;1.80;;;1.80;99.90;;;;;;4927028;28;20168;-85
2021/04/08 01:47:19;;;;;;;10.10;1.55;;;1.80;99.90;;;;;;4927058;28;20087;-86
2021/04/08 01:49:44;;;;;;;23.05;1.95;;;3.00;99.90;;;;;;4927450;28;20113;-88
2021/04/08 01:52:07;;;;;;;;;;;1.90;99.90;;;;;;4929083;28;20579;-86
2021/04/08 01:54:33;;;;;;;15.38;1.75;;;2.00;99.90;;;;;;4927813;28;19971;-86
2021/04/08 01:57:01;;;;;;;18.23;2.38;;;2.00;99.90;;;;;;4928419;28;20581;-86
2021/04/08 01:59:25;;;;;;;23.75;1.85;;;2.10;99.90;;;;;;4927036;28;20120;-83
2021/04/08 02:01:48;;;;;;;19.95;1.55;;;2.20;99.90;;;;;;4928580;28;20494;-86
2021/04/08 02:04:12;;;;;;;22.55;2.28;;;2.20;99.90;;;;;;4925769;28;20121;-86
2021/04/08 02:06:37;;;;;;;22.77;2.15;;;2.20;99.90;;;;;;4926608;28;20435;-86
2021/04/08 02:09:00;;;;;;;16.35;2.13;;;2.30;99.90;;;;;;4925428;28;20098;-87
2021/04/08 02:11:26;;;;;;;18.92;2.03;;;2.30;99.90;;;;;;4928862;28;20093;-85
2021/04/08 02:13:49;;;;;;;;;;;2.30;99.90;;;;;;4922862;28;20090;-85
2021/04/08 02:16:12;;;;;;;9.38;1.00;;;2.30;99.90;;;;;;4926864;28;19962;-84
2021/04/08 02:18:37;;;;;;;17.30;2.35;;;2.30;99.90;;;;;;4926265;28;20336;-85
2021/04/08 02:21:01;;;;;;;15.77;1.77;;;2.30;99.90;;;;;;4928484;28;20441;-85
2021/04/08 02:23:26;;;;;;;24.15;2.45;;;2.20;99.90;;;;;;4928255;28;20143;-85
2021/04/08 02:25:50;;;;;;;15.35;1.50;;;2.20;99.90;;;;;;4926254;28;20086;-86
2021/04/08 02:28:14;;;;;;;19.75;2.15;;;;;;;;;;4928943;28;20086;-85
2021/04/08 02:30:46;;;;;;;24.20;2.55;;;2.10;99.90;;;;;;4925210;28;20097;-86
2021/04/08 02:33:09;;;;;;;16.77;2.55;;;2.10;99.90;;;;;;4926751;28;20087;-85
2021/04/08 02:35:31;;;;;;;17.15;2.05;;;2.00;99.90;;;;;;4917173;28;20103;-86
2021/04/08 02:37:54;;;;;;;18.35;2.00;;;1.90;99.90;;;;;;4918336;28;20126;-86
2021/04/08 02:40:20;;;;;;;21.48;2.28;;;1.70;99.90;;;;;;4924865;28;20098;-87
2021/04/08 02:42:43;;;;;;;28.02;2.78;;;1.70;99.90;;;;;;4927598;28;20083;-86
2021/04/08 02:45:08;;;;;;;23.67;1.92;;;1.60;99.90;;;;;;4926154;28;20091;-87
2021/04/08 02:47:31;;;;;;;23.48;2.67;;;1.60;99.90;;;;;;4925788;28;20083;-87
2021/04/08 02:49:54;;;;;;;13.48;1.95;;;1.70;99.90;;;;;;4926634;28;20110;-86
2021/04/08 02:52:20;;;;;;;17.33;1.48;;;1.70;99.90;;;;;;4927570;28;20102;-86
2021/04/08 02:54:48;;;;;;;27.30;2.10;;;1.80;99.90;;;;;;4926687;28;20080;-86
2021/04/08 02:57:19;;;;;;;11.10;2.05;;;1.90;99.90;;;;;;4915645;28;20090;-87
2021/04/08 02:59:47;;;;;;;25.67;2.35;;;1.90;99.90;;;;;;4926582;28;20091;-86
2021/04/08 03:02:12;;;;;;;21.98;2.22;;;2.00;99.90;;;;;;4926819;28;20139;-86
2021/04/08 03:04:41;;;;;;;12.25;1.80;;;2.00;99.90;;;;;;4925638;28;20082;-86
2021/04/08 03:07:04;;;;;;;19.60;2.28;;;;;;;;;;4927579;28;20091;-87
2021/04/08 03:09:32;;;;;;;23.27;2.40;;;2.10;99.90;;;;;;4926068;28;20087;-87
2021/04/08 03:12:00;;;;;;;18.58;1.90;;;2.20;99.90;;;;;;4926098;28;20082;-86
2021/04/08 03:14:25;;;;;;;13.93;1.73;;;2.20;99.90;;;;;;4927096;28;20094;-86
2021/04/08 03:16:50;;;;;;;23.48;2.30;;;2.20;99.90;;;;;;4925034;28;20087;-87
2021/04/08 03:19:18;;;;;;;28.10;2.65;;;2.20;99.90;;;;;;4925254;28;20173;-86
2021/04/08 03:21:43;;;;;;;19.92;2.25;;;2.30;99.90;;;;;;4925296;28;20165;-87
2021/04/08 03:24:08;;;;;;;28.30;2.83;;;2.30;99.90;;;;;;4927301;28;20090;-85
2021/04/08 03:26:32;;;;;;;20.48;2.45;;;2.30;99.90;;;;;;4927966;28;20086;-87
2021/04/08 03:28:56;;;;;;;30.90;2.90;;;2.40;99.90;;;;;;4924473;28;20117;-86
2021/04/08 03:31:21;;;;;;;16.63;2.45;;;2.40;99.90;;;;;;4923838;28;20082;-85
2021/04/08 03:33:45;;;;;;;19.88;2.47;;;2.30;99.90;;;;;;4927144;28;20087;-87
2021/04/08 03:36:09;;;;;;;19.83;2.77;;;2.40;99.90;;;;;;4926438;28;20125;-87
2021/04/08 03:38:33;;;;;;;17.38;2.20;;;2.40;99.90;;;;;;4925071;28;20086;-87
2021/04/08 03:40:59;;;;;;;11.63;1.88;;;2.40;99.90;;;;;;4923874;28;20098;-87
2021/04/08 03:43:23;;;;;;;26.25;2.47;;;2.40;99.90;;;;;;4925559;28;20099;-87
2021/04/08 03:45:45;;;;;;;11.27;1.95;;;2.40;99.90;;;;;;4926241;28;20082;-85
2021/04/08 03:48:12;;;;;;;18.75;2.30;;;2.40;99.90;;;;;;4926894;28;20094;-87
2021/04/08 03:50:36;;;;;;;19.40;2.78;;;2.40;99.90;;;;;;4926491;28;20112;-88
2021/04/08 03:53:00;;;;;;;27.60;2.83;;;;;;;;;;4927401;28;20559;-89
2021/04/08 03:55:25;;;;;;;21.50;3.80;;;2.40;99.90;;;;;;4926606;28;20113;-87
2021/04/08 03:57:47;;;;;;;24.35;3.22;;;2.40;99.90;;;;;;4924956;28;20430;-84
2021/04/08 04:00:12;;;;;;;17.55;2.55;;;2.40;99.90;;;;;;4927173;28;20122;-87
2021/04/08 04:02:36;;;;;;;23.23;3.13;;;2.50;99.90;;;;;;4925815;28;20093;-87
2021/04/08 04:05:04;;;;;;;21.48;2.92;;;2.60;99.90;;;;;;4923321;28;20604;-88
2021/04/08 04:07:27;;;;;;;21.73;2.53;;;2.60;99.90;;;;;;4924552;28;20438;-86
2021/04/08 04:09:50;;;;;;;26.50;3.22;;;2.70;99.90;;;;;;4926503;28;20139;-87
2021/04/08 04:12:15;;;;;;;34.80;2.97;;;2.70;99.90;;;;;;4923370;28;20465;-89
2021/04/08 04:14:38;;;;;;;14.35;3.20;;;2.70;99.90;;;;;;4926170;28;20100;-87
2021/04/08 04:17:23;;;;;;;24.60;2.70;;;2.70;99.90;;;;;;4925803;28;20090;-90
2021/04/08 04:19:47;;;;;;;21.83;2.70;;;;;;;;;;4924103;28;20120;-86
2021/04/08 04:22:11;;;;;;;27.95;4.18;;;;;;;;;;4923590;28;20098;-88
2021/04/08 04:24:34;;;;;;;23.10;3.13;;;2.80;99.90;;;;;;4926892;28;20087;-86
2021/04/08 04:26:56;;;;;;;14.30;2.92;;;2.80;99.90;;;;;;4925672;28;20143;-88
2021/04/08 04:29:19;;;;;;;16.90;3.17;;;2.80;99.90;;;;;;4926359;28;20089;-89
2021/04/08 04:31:41;;;;;;;27.20;3.10;;;2.80;99.90;;;;;;4925918;28;20078;-88
2021/04/08 04:34:04;;;;;;;22.38;2.72;;;;;;;;;;4924314;28;20087;-86
2021/04/08 04:36:27;;;;;;;30.90;4.25;;;2.70;99.90;;;;;;4916027;28;20094;-88
2021/04/08 04:38:50;;;;;;;39.33;2.90;;;2.70;99.90;;;;;;4926787;28;20086;-86
2021/04/08 04:41:13;;;;;;;27.05;2.80;;;2.80;99.90;;;;;;4925179;28;20098;-85
2021/04/08 04:43:36;;;;;;;19.23;2.85;;;;;;;;;;4925384;28;20144;-86
2021/04/08 04:45:58;;;;;;;22.70;2.60;;;2.80;99.90;;;;;;4926610;28;20117;-88
2021/04/08 04:48:22;;;;;;;23.50;2.50;;;2.80;99.90;;;;;;4925800;28;20094;-88
2021/04/08 04:50:44;;;;;;;20.38;2.35;;;2.80;99.90;;;;;;4913551;28;20101;-88
2021/04/08 04:53:07;;;;;;;18.70;2.47;;;2.80;99.90;;;;;;4923406;28;20114;-88
2021/04/08 04:55:31;;;;;;;20.45;2.50;;;2.80;99.90;;;;;;4923022;28;20513;-88
2021/04/08 04:57:53;;;;;;;22.02;3.53;;;;;;;;;;4924648;28;20091;-87
2021/04/08 05:00:17;;;;;;;21.15;2.58;;;2.80;99.90;;;;;;4914480;28;20090;-89
2021/04/08 05:02:40;;;;;;;27.17;2.67;;;2.80;99.90;;;;;;4924354;28;20098;-88
2021/04/08 05:05:03;;;;;;;18.13;2.72;;;2.80;99.90;;;;;;4926511;28;20518;-87
2021/04/08 05:07:26;;;;;;;13.57;2.00;;;2.80;99.90;;;;;;4924573;28;20090;-89
2021/04/08 05:09:48;;;;;;;20.55;2.28;;;2.90;99.90;;;;;;4925432;28;20144;-89
2021/04/08 05:12:12;;;;;;;17.40;2.70;;;3.00;99.90;;;;;;4925242;28;20082;-88
2021/04/08 05:14:35;;;;;;;14.38;2.60;;;3.10;99.90;;;;;;4925148;28;20078;-87
2021/04/08 05:16:58;;;;;;;17.17;2.80;;;3.20;99.90;;;;;;4922873;28;20106;-90
2021/04/08 05:19:21;;;;;;;15.45;3.20;;;3.20;99.90;;;;;;4924521;28;20093;-86
2021/04/08 05:21:44;;;;;;;14.68;2.55;;;3.30;99.90;;;;;;4924659;28;20086;-86
2021/04/08 05:24:07;;;;;;;15.85;3.50;;;3.40;99.90;;;;;;4925331;28;20117;-86
2021/04/08 05:26:30;;;;;;;15.27;3.03;;;3.40;99.90;;;;;;4926356;28;20079;-86
2021/04/08 05:28:53;;;;;;;14.98;3.80;;;3.40;99.90;;;;;;4924005;28;20461;-87
2021/04/08 05:31:16;;;;;;;7.60;2.75;;;;;;;;;;4923424;28;20094;-86
2021/04/08 05:33:40;;;;;;;8.52;2.67;;;3.40;99.90;;;;;;4924992;28;20094;-82
2021/04/08 05:36:02;;;;;;;12.07;3.20;;;3.40;99.90;;;;;;4925077;28;20097;-88
2021/04/08 05:38:25;;;;;;;14.15;2.30;;;3.40;99.90;;;;;;4923893;28;20499;-84
2021/04/08 05:40:47;;;;;;;13.07;3.38;;;3.50;99.90;;;;;;4923877;28;20097;-86
2021/04/08 05:43:10;;;;;;;17.77;2.58;;;;;;;;;;4927393;28;20140;-85
2021/04/08 05:45:34;;;;;;;14.65;3.20;;;3.60;99.90;;;;;;4927932;28;20090;-86
2021/04/08 05:47:56;;;;;;;15.93;3.17;;;3.60;99.90;;;;;;4927856;28;20091;-83
2021/04/08 05:50:19;;;;;;;21.25;3.10;;;3.70;99.90;;;;;;4928838;28;20093;-86
2021/04/08 05:52:42;;;;;;;12.30;2.63;;;3.80;99.90;;;;;;4927489;28;20078;-87
2021/04/08 05:55:06;;;;;;;9.55;2.17;;;3.80;99.90;;;;;;4928808;28;20105;-89
2021/04/08 05:57:29;;;;;;;10.27;2.30;;;3.80;99.90;;;;;;4926914;28;20098;-85
2021/04/08 05:59:51;;;;;;;9.68;2.13;;;3.80;99.90;;;;;;4928658;28;20517;-88
2021/04/08 06:02:14;;;;;;;9.35;2.00;;;3.80;99.90;;;;;;4929133;28;20090;-86
2021/04/08 06:04:37;;;;;;;17.83;2.47;;;3.90;99.90;;;;;;4928425;28;20082;-88
2021/04/08 06:07:00;;;;;;;7.25;2.58;;;4.00;99.90;;;;;;4928800;28;20086;-85
2021/04/08 06:09:22;;;;;;;13.68;2.47;;;4.00;99.90;;;;;;4927146;28;20094;-84
2021/04/08 06:11:47;;;;;;;15.45;2.05;;;4.10;99.90;;;;;;4920359;28;20078;-87
2021/04/08 06:14:10;;;;;;;7.95;1.95;;;4.10;99.90;;;;;;4927961;28;20090;-84
2021/04/08 06:16:34;;;;;;;15.90;2.83;;;4.20;99.90;;;;;;4929067;28;20118;-87
2021/04/08 06:18:57;;;;;;;8.57;1.45;;;4.20;99.90;;;;;;4927871;28;20092;-85
2021/04/08 06:21:20;;;;;;;12.05;1.90;;;4.30;99.90;;;;;;4926619;28;20098;-86
2021/04/08 06:23:43;;;;;;;15.65;2.30;;;4.40;99.90;;;;;;4918609;28;20086;-87
2021/04/08 06:26:05;;;;;;;20.95;2.60;;;4.60;99.90;;;;;;4927678;28;20094;-85
2021/04/08 06:28:28;;;;;;;20.33;3.72;;;4.60;99.90;;;;;;4926546;28;20094;-85
2021/04/08 06:30:51;;;;;;;11.30;1.73;;;4.70;99.90;;;;;;4917474;28;20106;-89
2021/04/08 06:33:13;;;;;;;18.45;2.88;;;4.70;99.90;;;;;;4928485;28;20078;-85
2021/04/08 06:35:37;;;;;;;14.35;2.72;;;4.70;99.90;;;;;;4928305;28;20120;-88
2021/04/08 06:37:59;;;;;;;14.80;2.60;;;4.60;99.90;;;;;;4926422;28;20448;-85
2021/04/08 06:40:23;;;;;;;20.50;4.25;;;4.60;99.90;;;;;;4912248;28;20094;-86
2021/04/08 06:42:47;;;;;;;23.90;2.30;;;4.70;99.90;;;;;;4928397;28;20090;-86
2021/04/08 06:45:12;;;;;;;19.38;2.30;;;4.80;99.90;;;;;;4917302;28;20533;-84
2021/04/08 06:47:53;;;;;;;19.05;1.70;;;5.10;99.90;;;;;;4927859;28;20140;-86
2021/04/08 06:50:20;;;;;;;17.83;2.40;;;6.10;99.90;;;;;;4923316;28;20581;-86
2021/04/08 06:52:44;;;;;;;19.88;2.45;;;4.90;99.90;;;;;;4918748;28;20140;-88
2021/04/08 06:55:09;;;;;;;14.02;2.10;;;4.90;99.90;;;;;;4925014;28;20150;-85
2021/04/08 06:57:33;;;;;;;19.20;1.93;;;4.80;99.90;;;;;;4923804;28;20078;-85
2021/04/08 06:59:58;;;;;;;32.13;2.53;;;4.80;99.90;;;;;;4925178;28;20094;-87
2021/04/08 07:02:22;;;;;;;18.20;2.45;;;4.70;99.90;;;;;;4925990;28;20515;-87
2021/04/08 07:04:44;;;;;;;9.43;1.60;;;4.70;99.90;;;;;;4925180;28;20453;-86
2021/04/08 07:07:07;;;;;;;24.50;2.72;;;4.70;99.90;;;;;;4924749;28;20090;-86
2021/04/08 07:09:30;;;;;;;18.60;3.33;;;4.60;99.90;;;;;;4926490;28;20083;-87
2021/04/08 07:11:53;;;;;;;14.93;1.90;;;4.60;99.90;;;;;;4928260;28;20503;-89
2021/04/08 07:14:16;;;;;;;16.63;1.77;;;4.70;99.90;;;;;;4926300;28;20083;-88
2021/04/08 07:16:39;;;;;;;16.25;2.33;;;4.70;99.90;;;;;;4927273;28;20127;-90
2021/04/08 07:19:05;;;;;;;16.25;1.65;;;4.80;99.90;;;;;;4923562;28;20449;-87
2021/04/08 07:21:29;;;;;;;28.55;2.47;;;4.80;99.90;;;;;;4925540;28;20083;-85
2021/04/08 07:24:13;;;;;;;15.68;2.55;;;4.80;99.90;;;;;;4925102;28;20140;-86
2021/04/08 07:27:01;;;;;;;10.30;1.70;;;4.90;99.90;;;;;;4926933;28;20086;-87
2021/04/08 07:29:43;;;;;;;13.48;1.88;;;5.00;99.90;;;;;;4917745;28;24992;-86
2021/04/08 07:32:06;;;;;;;16.27;2.17;;;4.90;99.90;;;;;;4925482;28;20098;-87
2021/04/08 07:34:33;;;;;;;16.70;2.53;;;4.90;99.90;;;;;;4923484;28;20082;-87
2021/04/08 07:36:55;;;;;;;15.20;2.15;;;4.90;99.90;;;;;;4925234;28;20144;-89
2021/04/08 07:39:19;;;;;;;14.82;1.88;;;4.90;99.90;;;;;;4924437;28;20090;-84
2021/04/08 07:41:42;;;;;;;17.75;2.28;;;5.00;99.90;;;;;;4926494;28;20105;-87
2021/04/08 07:44:07;;;;;;;17.63;2.88;;;4.90;99.90;;;;;;4925242;28;20082;-84
2021/04/08 07:46:32;;;;;;;9.90;1.10;;;5.00;99.90;;;;;;4923268;28;20101;-86
2021/04/08 07:48:55;;;;;;;10.70;1.40;;;5.60;99.90;;;;;;4924455;28;20291;-87
2021/04/08 07:51:32;;;;;;;10.90;1.35;;;6.40;99.90;;;;;;4923853;28;20143;-85
2021/04/08 07:54:12;;;;;;;13.88;2.22;;;6.20;99.90;;;;;;4923788;28;20143;-86
2021/04/08 07:56:35;;;;;;;8.43;1.05;;;6.90;99.90;;;;;;4924256;28;20090;-89
2021/04/08 07:59:20;;;;;;;10.05;1.67;;;7.50;99.90;;;;;;4926122;28;20536;-86
2021/04/08 08:01:45;;;;;;;13.68;1.70;;;7.60;99.90;;;;;;4904106;28;20089;-87
2021/04/08 08:04:19;;;;;;;11.65;1.85;;;6.80;99.90;;;;;;4924809;28;20082;-86
2021/04/08 08:06:42;;;;;;;7.00;1.23;;;6.10;99.90;;;;;;4912701;28;20082;-85
2021/04/08 08:09:06;;;;;;;12.90;1.55;;;5.90;99.90;;;;;;4913372;28;20083;-85
2021/04/08 08:11:40;;;;;;;15.55;1.50;;;5.90;99.90;;;;;;4912494;28;20575;-84
2021/04/08 08:14:03;;;;;;;10.32;1.52;;;;;;;;;;4910667;28;20078;-84
2021/04/08 08:16:28;;;;;;;16.58;1.40;;;5.80;99.90;;;;;;4917601;28;20094;-86
2021/04/08 08:18:51;;;;;;;14.70;1.83;;;5.50;99.90;;;;;;4916369;28;20093;-87
2021/04/08 08:21:17;;;;;;;13.48;1.70;;;5.50;99.90;;;;;;4905197;28;20136;-87
2021/04/08 08:23:42;;;;;;;19.65;1.77;;;5.30;99.90;;;;;;4907597;28;20083;-91
2021/04/08 08:26:29;;;;;;;16.23;3.03;;;5.10;99.90;;;;;;4907476;28;20094;-88
2021/04/08 08:28:53;;;;;;;13.18;1.52;;;5.30;99.90;;;;;;4915167;28;20091;-86
2021/04/08 08:31:38;;;;;;;16.75;2.17;;;5.30;99.90;;;;;;4909172;28;20093;-89
2021/04/08 08:34:04;;;;;;;19.63;1.88;;;5.20;99.90;;;;;;4904994;28;20447;-87
2021/04/08 08:36:26;;;;;;;10.00;1.20;;;5.20;99.90;;;;;;4907389;28;20091;-89
2021/04/08 08:38:49;;;;;;;17.45;2.17;;;5.10;99.90;;;;;;4908082;28;20087;-89
2021/04/08 08:41:12;;;;;;;21.13;3.30;;;5.10;99.90;;;;;;4906396;28;21217;-89
2021/04/08 08:43:35;;;;;;;7.22;1.33;;;5.10;99.90;;;;;;4908078;28;20086;-87
2021/04/08 08:45:58;;;;;;;14.27;0.80;;;5.00;99.90;;;;;;4908104;28;20099;-83
2021/04/08 08:48:22;;;;;;;14.80;2.10;;;5.10;99.90;;;;;;4904868;28;20163;-89
2021/04/08 08:50:45;;;;;;;9.60;1.20;;;5.30;99.90;;;;;;4906710;28;20087;-86
2021/04/08 08:53:10;;;;;;;8.88;2.08;;;5.40;99.90;;;;;;4907154;28;20089;-88
2021/04/08 08:55:33;;;;;;;5.47;1.23;;;5.30;99.90;;;;;;4906910;28;20168;-89
2021/04/08 08:57:57;;;;;;;9.68;1.95;;;5.40;99.90;;;;;;4926302;28;20521;-87
2021/04/08 09:00:22;;;;;;;12.32;1.10;;;5.30;99.90;;;;;;4921217;28;20095;-85
2021/04/08 09:03:11;;;;;;;12.32;1.50;;;5.40;99.90;;;;;;4878202;28;20098;-88
2021/04/08 09:05:36;;;;;;;11.20;1.13;;;5.60;99.90;;;;;;4869650;28;20093;-87
2021/04/08 09:08:17;;;;;;;13.20;1.83;;;5.70;99.90;;;;;;4880178;28;20083;-85
2021/04/08 09:10:44;;;;;;;10.45;0.73;;;5.70;99.90;;;;;;4904700;28;20444;-88
2021/04/08 09:13:21;;;;;;;5.60;0.77;;;5.70;99.90;;;;;;4883209;28;20162;-87
2021/04/08 09:15:47;;;;;;;5.35;1.02;;;5.70;99.90;;;;;;4891590;28;20086;-87
2021/04/08 09:18:13;;;;;;;4.78;0.77;;;5.50;99.90;;;;;;4878486;28;20533;-88
2021/04/08 09:20:38;;;;;;;9.75;1.52;;;5.70;99.90;;;;;;4885538;28;20449;-86
2021/04/08 09:23:03;;;;;;;10.25;1.45;;;5.80;99.90;;;;;;4876516;28;20090;-85
2021/04/08 09:25:31;;;;;;;;;;;6.00;99.90;;;;;;4875980;28;20170;-86
2021/04/08 09:28:16;;;;;;;14.45;1.27;;;6.60;99.90;;;;;;4869189;28;19973;-88
2021/04/08 09:30:50;;;;;;;4.22;0.50;;;6.70;99.90;;;;;;4890954;28;20114;-87
2021/04/08 09:33:15;;;;;;;5.95;1.60;;;6.50;99.90;;;;;;4881951;28;20094;-85
2021/04/08 09:35:43;;;;;;;10.43;1.05;;;6.30;99.90;;;;;;4875655;28;20090;-85
2021/04/08 09:38:43;;;;;;;15.52;1.20;;;6.40;99.90;;;;;;4877876;27;20433;-86
2021/04/08 09:41:18;;;;;;;8.48;1.38;;;6.20;99.90;;;;;;4882518;28;20082;-85
2021/04/08 09:43:46;;;;;;;6.88;1.00;;;6.30;99.90;;;;;;4892670;28;20093;-87
2021/04/08 09:46:11;;;;;;;16.98;1.38;;;6.40;99.90;;;;;;4902814;28;20097;-83
2021/04/08 09:52:30;;;;;;;6.75;0.80;;;6.60;99.90;;;;;;4862376;28;20091;-85
2021/04/08 09:55:22;;;;;;;6.93;1.05;;;7.70;99.90;;;;;;4880534;28;20082;-84
2021/04/08 09:57:47;;;;;;;13.95;1.40;;;;;;;;;;4861580;28;20134;-85
2021/04/08 10:03:46;;;;;;;5.88;1.02;;;7.70;99.90;;;;;;4852761;28;20086;-81
2021/04/08 10:06:27;;;;;;;7.82;1.70;;;7.70;99.90;;;;;;4857995;28;20090;-84
2021/04/08 10:09:29;;;;;;;16.42;2.80;;;7.00;99.90;;;;;;4852575;28;20093;-85
2021/04/08 10:12:34;;;;;;;7.70;1.05;;;6.60;99.90;;;;;;4863485;28;20232;-84
2021/04/08 10:14:59;;;;;;;7.95;0.70;;;6.20;99.90;;;;;;4877351;28;20109;-89
2021/04/08 10:17:37;;;;;;;6.97;1.00;;;6.60;99.90;;;;;;4871874;28;20105;-88
2021/04/08 10:20:01;;;;;;;14.82;1.10;;;7.20;99.90;;;;;;4898816;28;20121;-86
2021/04/08 10:22:26;;;;;;;11.70;0.95;;;7.40;99.90;;;;;;4886655;28;20093;-83
2021/04/08 10:24:52;;;;;;;6.13;0.63;;;7.00;99.90;;;;;;4883673;28;20082;-86
2021/04/08 10:27:17;;;;;;;16.67;1.20;;;7.30;99.90;;;;;;4884212;28;20090;-84
2021/04/08 10:29:40;;;;;;;10.53;0.87;;;6.80;99.90;;;;;;4881743;28;20181;-88
2021/04/08 10:32:03;;;;;;;5.72;0.70;;;6.30;99.90;;;;;;4878607;28;20467;-84
2021/04/08 10:34:36;;;;;;;8.27;0.77;;;5.90;99.90;;;;;;4878894;28;20465;-83
2021/04/08 10:37:04;;;;;;;17.70;1.27;;;6.00;99.90;;;;;;4890906;28;20098;-84
2021/04/08 10:39:31;;;;;;;14.77;1.00;;;7.20;99.90;;;;;;4883133;28;20105;-85
2021/04/08 10:42:10;;;;;;;6.50;0.90;;;8.00;99.90;;;;;;4899880;28;20158;-86
2021/04/08 10:44:35;;;;;;;11.90;0.60;;;7.40;99.90;;;;;;4902930;28;20082;-86
2021/04/08 10:47:10;;;;;;;4.97;0.63;;;6.30;99.90;;;;;;4877547;28;20724;-84
2021/04/08 10:49:38;;;;;;;6.78;0.65;;;6.30;99.90;;;;;;4906851;28;20556;-86
2021/04/08 10:52:05;;;;;;;4.70;1.05;;;6.20;99.90;;;;;;4868811;28;20091;-88
2021/04/08 10:54:30;;;;;;;10.55;0.90;;;6.20;99.90;;;;;;4878332;28;20144;-85
2021/04/08 10:56:54;;;;;;;10.38;1.00;;;6.50;99.90;;;;;;4893627;28;20578;-83
2021/04/08 10:59:25;;;;;;;4.85;1.10;;;7.00;99.90;;;;;;4897857;28;20135;-87
2021/04/08 11:01:51;;;;;;;11.45;0.98;;;7.20;99.90;;;;;;4907869;28;20184;-86
2021/04/08 11:04:17;;;;;;;7.07;0.63;;;7.80;99.90;;;;;;4888710;28;20097;-84
2021/04/08 11:06:40;;;;;;;6.97;1.15;;;8.60;99.90;;;;;;4913154;28;20101;-85
2021/04/08 11:09:03;;;;;;;7.80;0.63;;;9.20;99.90;;;;;;4925391;28;20102;-87
2021/04/08 11:11:25;;;;;;;6.63;1.00;;;9.40;99.90;;;;;;4927256;28;20100;-87
2021/04/08 11:13:48;;;;;;;5.63;0.80;;;9.10;99.90;;;;;;4927070;28;20084;-84
2021/04/08 11:16:11;;;;;;;4.35;0.63;;;7.40;99.90;;;;;;4927296;28;20166;-85
2021/04/08 11:18:34;;;;;;;6.70;0.85;;;6.70;99.90;;;;;;4924107;28;20128;-84
2021/04/08 11:21:00;;;;;;;5.57;0.98;;;6.60;99.90;;;;;;4926396;28;20097;-84
2021/04/08 11:23:23;;;;;;;11.55;0.82;;;6.60;99.90;;;;;;4927128;28;20117;-87
2021/04/08 11:26:00;;;;;;;8.05;1.67;;;6.70;99.90;;;;;;4927454;28;20165;-87
2021/04/08 11:28:23;;;;;;;3.85;0.55;;;6.90;99.90;;;;;;4923860;28;20421;-85
2021/04/08 11:30:46;;;;;;;4.05;0.82;;;6.80;99.90;;;;;;4927540;28;20423;-86
2021/04/08 11:33:25;;;;;;;10.60;0.88;;;6.90;99.90;;;;;;4924092;28;20097;-84
2021/04/08 11:35:48;;;;;;;3.25;0.50;;;7.00;99.90;;;;;;4926790;28;20564;-86
2021/04/08 11:38:16;;;;;;;5.45;0.95;;;7.30;99.90;;;;;;4925360;28;20140;-87
2021/04/08 11:40:40;;;;;;;5.22;0.40;;;7.30;99.90;;;;;;4925780;28;20518;-88
2021/04/08 11:43:22;;;;;;;8.07;0.90;;;7.10;99.90;;;;;;4927356;28;20095;-85
2021/04/08 11:45:45;;;;;;;7.72;0.90;;;7.20;99.90;;;;;;4918128;28;20169;-89
2021/04/08 11:48:09;;;;;;;9.85;0.85;;;7.40;99.90;;;;;;4924255;28;20436;-86
2021/04/08 11:50:34;;;;;;;6.25;0.70;;;7.50;99.90;;;;;;4925434;28;20524;-87
2021/04/08 11:53:01;;;;;;;3.03;0.65;;;7.60;99.90;;;;;;4925496;28;20085;-88
2021/04/08 11:55:38;;;;;;;9.60;1.27;;;7.60;99.90;;;;;;4924305;28;20587;-87
2021/04/08 11:58:00;;;;;;;1.83;0.52;;;7.20;99.90;;;;;;4924777;28;20158;-87
2021/04/08 12:00:28;;;;;;;2.90;0.57;;;7.20;99.90;;;;;;4925571;28;20090;-88
2021/04/08 12:02:51;;;;;;;9.18;0.60;;;7.50;99.90;;;;;;4926499;28;20086;-85
2021/04/08 12:05:15;;;;;;;5.60;0.93;;;7.50;99.90;;;;;;4926418;28;20144;-86
2021/04/08 12:07:42;;;;;;;4.25;0.40;;;7.60;99.90;;;;;;4924541;28;20540;-87
2021/04/08 12:10:23;;;;;;;4.10;0.43;;;7.10;99.90;;;;;;4911318;28;20091;-86
2021/04/08 12:12:54;;;;;;;1.73;0.40;;;6.80;99.90;;;;;;4924089;28;20077;-87
2021/04/08 12:15:17;;;;;;;5.63;0.50;;;6.60;99.90;;;;;;4915829;28;20870;-90
2021/04/08 12:17:39;;;;;;;2.35;0.55;;;6.70;99.90;;;;;;4908181;28;20106;-88
2021/04/08 12:20:24;;;;;;;0.60;0.20;;;6.90;99.90;;;;;;4904872;28;20132;-88
2021/04/08 12:22:47;;;;;;;3.40;0.68;;;6.90;99.90;;;;;;4905203;28;20101;-89
2021/04/08 12:25:13;;;;;;;3.60;0.65;;;7.30;99.90;;;;;;4913139;28;20085;-86
2021/04/08 12:27:36;;;;;;;12.77;2.13;;;7.70;99.90;;;;;;4916421;28;20094;-86
2021/04/08 12:29:58;;;;;;;9.32;0.88;;;8.30;99.90;;;;;;4915279;28;20090;-85
2021/04/08 12:32:28;;;;;;;4.50;0.80;;;8.00;99.90;;;;;;4918905;28;20089;-86
2021/04/08 12:34:51;;;;;;;12.15;2.00;;;;;;;;;;4917011;28;20506;-88
2021/04/08 12:37:14;;;;;;;5.20;1.08;;;8.50;99.90;;;;;;4915273;28;20092;-86
2021/04/08 12:39:37;;;;;;;3.03;0.63;;;8.20;99.90;;;;;;4917310;28;20116;-87
2021/04/08 12:42:01;;;;;;;4.50;0.45;;;7.80;99.90;;;;;;4914414;28;20474;-87
2021/04/08 12:44:23;;;;;;;3.65;0.65;;;7.70;99.90;;;;;;4914174;28;20113;-85
2021/04/08 12:46:46;;;;;;;7.22;0.60;;;7.60;99.90;;;;;;4914259;28;20091;-88
2021/04/08 12:49:08;;;;;;;3.33;0.80;;;7.50;99.90;;;;;;4915871;28;20505;-87
2021/04/08 12:51:31;;;;;;;6.18;0.80;;;7.50;99.90;;;;;;4915340;28;20164;-85
2021/04/08 12:53:54;;;;;;;2.47;0.50;;;7.70;99.90;;;;;;4915413;28;20082;-85
2021/04/08 12:56:17;;;;;;;8.50;1.08;;;8.00;99.90;;;;;;4913617;28;20080;-86
2021/04/08 12:58:40;;;;;;;5.75;0.98;;;8.30;99.90;;;;;;4910006;28;20167;-86